createdAt,value
2022-10-05T00:00:00.652Z,11.35
2022-10-05T00:03:11.273Z,15.05
2022-10-05T00:06:15.384Z,9.38
2022-10-05T00:09:21.757Z,10.68
2022-10-05T00:12:26.507Z,9.90
2022-10-05T00:15:30.419Z,9.48
2022-10-05T00:18:33.961Z,11.48
2022-10-05T00:21:37.453Z,10.68
2022-10-05T00:24:41.935Z,13.68
2022-10-05T00:27:49.653Z,11.75
2022-10-05T00:30:56.565Z,12.80
2022-10-05T00:34:00.202Z,13.70
2022-10-05T00:37:04.185Z,10.15
2022-10-05T00:40:21.353Z,9.30
2022-10-05T00:43:45.031Z,15.13
2022-10-05T00:46:55.761Z,14.43
2022-10-05T00:50:18.989Z,14.27
2022-10-05T00:53:39.178Z,11.77
2022-10-05T00:57:22.593Z,13.45
2022-10-05T01:00:27.929Z,10.60
2022-10-05T01:03:38.475Z,9.40
2022-10-05T01:06:55.589Z,9.68
2022-10-05T01:10:12.675Z,13.43
2022-10-05T01:13:26.673Z,12.25
2022-10-05T01:16:37.030Z,14.38
2022-10-05T01:20:03.115Z,17.25
2022-10-05T01:23:30.261Z,9.85
2022-10-05T01:26:55.325Z,12.82
2022-10-05T01:30:03.837Z,13.00
2022-10-05T01:33:17.060Z,15.05
2022-10-05T01:36:31.172Z,14.85
2022-10-05T01:39:44.749Z,11.10
2022-10-05T01:43:00.088Z,13.88
2022-10-05T01:46:11.600Z,12.38
2022-10-05T01:49:36.199Z,9.93
2022-10-05T01:52:50.178Z,13.93
2022-10-05T01:56:02.208Z,17.88
2022-10-05T01:59:19.034Z,12.27
2022-10-05T02:02:26.976Z,11.35
2022-10-05T02:05:39.302Z,12.55
2022-10-05T02:08:47.979Z,11.63
2022-10-05T02:11:57.707Z,14.10
2022-10-05T02:15:08.312Z,14.02
2022-10-05T02:18:19.087Z,12.10
2022-10-05T02:21:24.494Z,11.23
2022-10-05T02:24:33.421Z,17.40
2022-10-05T02:27:50.270Z,10.13
2022-10-05T02:30:57.835Z,13.75
2022-10-05T02:34:28.684Z,15.80
2022-10-05T02:38:01.844Z,14.95
2022-10-05T02:41:25.301Z,12.18
2022-10-05T02:44:40.162Z,14.82
2022-10-05T02:47:50.595Z,11.40
2022-10-05T02:51:03.925Z,17.45
2022-10-05T02:54:16.534Z,15.68
2022-10-05T02:57:27.956Z,13.85
2022-10-05T03:00:37.001Z,13.23
2022-10-05T03:03:44.565Z,10.02
2022-10-05T03:07:00.002Z,13.05
2022-10-05T03:10:08.790Z,13.95
2022-10-05T03:13:22.556Z,14.88
2022-10-05T03:16:39.504Z,14.80
2022-10-05T03:20:17.313Z,15.48
2022-10-05T03:23:34.929Z,14.68
2022-10-05T03:26:49.926Z,17.38
2022-10-05T03:29:59.322Z,15.77
2022-10-05T03:35:13.259Z,18.23
2022-10-05T03:38:24.591Z,16.90
2022-10-05T03:41:35.916Z,17.85
2022-10-05T03:44:50.536Z,20.95
2022-10-05T03:48:04.113Z,14.82
2022-10-05T03:51:21.286Z,12.95
2022-10-05T03:54:29.976Z,17.23
2022-10-05T03:57:38.460Z,19.27
2022-10-05T04:00:44.768Z,19.85
2022-10-05T04:03:51.822Z,19.13
2022-10-05T04:06:59.109Z,19.05
2022-10-05T04:10:07.287Z,16.77
2022-10-05T04:13:16.463Z,21.63
2022-10-05T04:16:24.167Z,19.73
2022-10-05T04:19:35.595Z,20.00
2022-10-05T04:22:44.151Z,17.05
2022-10-05T04:25:51.666Z,23.90
2022-10-05T04:29:04.353Z,16.85
2022-10-05T04:32:22.556Z,19.95
2022-10-05T04:35:55.686Z,15.13
2022-10-05T04:39:15.604Z,21.60
2022-10-05T04:42:30.515Z,17.75
2022-10-05T04:45:46.279Z,21.63
2022-10-05T04:49:09.162Z,18.70
2022-10-05T04:52:22.485Z,21.92
2022-10-05T04:55:37.088Z,20.27
2022-10-05T04:58:57.906Z,14.65
2022-10-05T05:02:11.996Z,18.20
2022-10-05T05:06:04.947Z,15.15
2022-10-05T05:09:34.405Z,13.52
2022-10-05T05:12:53.498Z,19.40
2022-10-05T05:16:05.683Z,23.60
2022-10-05T05:19:35.142Z,26.83
2022-10-05T05:22:46.532Z,19.88
2022-10-05T05:26:02.530Z,17.85
2022-10-05T05:29:16.937Z,15.73
2022-10-05T05:32:32.101Z,21.38
2022-10-05T05:35:50.366Z,21.85
2022-10-05T05:42:06.338Z,24.33
2022-10-05T05:45:17.656Z,22.90
2022-10-05T05:48:27.957Z,21.75
2022-10-05T05:51:36.371Z,59.03
2022-10-05T05:54:44.186Z,23.52
2022-10-05T05:57:52.412Z,21.98
2022-10-05T06:01:02.553Z,22.20
2022-10-05T06:04:12.254Z,24.25
2022-10-05T06:07:20.734Z,24.65
2022-10-05T06:10:32.524Z,24.67
2022-10-05T06:13:43.698Z,24.98
2022-10-05T06:16:55.445Z,22.30
2022-10-05T06:20:05.055Z,22.13
2022-10-05T06:23:19.117Z,25.55
2022-10-05T06:26:39.478Z,21.73
2022-10-05T06:30:02.701Z,24.40
2022-10-05T06:33:23.906Z,22.33
2022-10-05T06:36:40.271Z,21.38
2022-10-05T06:40:01.061Z,25.73
2022-10-05T06:43:25.449Z,23.83
2022-10-05T06:46:56.640Z,21.02
2022-10-05T06:50:33.726Z,22.25
2022-10-05T06:54:06.093Z,19.38
2022-10-05T06:57:25.247Z,27.45
2022-10-05T07:00:35.337Z,21.80
2022-10-05T07:03:49.997Z,20.52
2022-10-05T07:06:59.559Z,20.50
2022-10-05T07:10:18.188Z,44.05
2022-10-05T07:13:40.880Z,21.48
2022-10-05T07:16:57.181Z,17.77
2022-10-05T07:20:09.625Z,26.13
2022-10-05T07:23:24.067Z,18.90
2022-10-05T07:26:34.634Z,19.13
2022-10-05T07:29:47.740Z,19.38
2022-10-05T07:32:59.680Z,14.68
2022-10-05T07:36:27.765Z,18.90
2022-10-05T07:39:58.989Z,19.58
2022-10-05T07:43:14.919Z,14.80
2022-10-05T07:46:24.860Z,19.67
2022-10-05T07:49:37.790Z,17.20
2022-10-05T07:52:50.792Z,17.38
2022-10-05T07:56:00.311Z,14.80
2022-10-05T07:59:09.562Z,14.90
2022-10-05T08:02:23.754Z,13.63
2022-10-05T08:05:30.230Z,13.05
2022-10-05T08:08:44.028Z,11.90
2022-10-05T08:11:56.634Z,12.43
2022-10-05T08:15:04.316Z,31.08
2022-10-05T08:18:16.893Z,15.10
2022-10-05T08:21:25.829Z,13.88
2022-10-05T08:24:41.791Z,14.50
2022-10-05T08:27:52.834Z,12.88
2022-10-05T08:31:01.437Z,14.40
2022-10-05T08:34:17.436Z,14.73
2022-10-05T08:37:25.241Z,17.15
2022-10-05T08:44:08.131Z,12.63
2022-10-05T08:47:38.130Z,13.43
2022-10-05T08:51:03.991Z,12.20
2022-10-05T08:54:40.113Z,13.07
2022-10-05T08:58:12.244Z,15.27
2022-10-05T09:01:23.496Z,9.65
2022-10-05T09:04:42.793Z,12.55
2022-10-05T09:08:08.644Z,11.48
2022-10-05T09:11:16.697Z,37.88
2022-10-05T09:14:42.858Z,9.05
2022-10-05T09:18:21.411Z,9.75
2022-10-05T09:21:41.296Z,10.60
2022-10-05T09:24:57.249Z,10.55
2022-10-05T09:28:12.218Z,9.77
2022-10-05T09:35:16.980Z,6.72
2022-10-05T09:38:32.835Z,7.97
2022-10-05T09:42:09.315Z,7.75
2022-10-05T09:45:49.246Z,8.18
2022-10-05T09:52:48.872Z,9.48
2022-10-05T09:56:13.222Z,9.52
2022-10-05T10:00:02.298Z,5.93
2022-10-05T10:03:45.632Z,4.88
2022-10-05T10:07:21.596Z,6.40
2022-10-05T10:11:02.593Z,7.93
2022-10-05T10:14:23.983Z,10.80
2022-10-05T10:17:43.925Z,6.72
2022-10-05T10:21:24.727Z,5.40
2022-10-05T10:25:02.183Z,5.60
2022-10-05T10:28:32.421Z,7.80
2022-10-05T10:31:50.727Z,11.57
2022-10-05T10:35:20.722Z,6.68
2022-10-05T10:38:33.132Z,9.40
2022-10-05T10:42:22.571Z,4.53
2022-10-05T10:45:45.433Z,8.45
2022-10-05T10:49:07.999Z,8.45
2022-10-05T10:52:26.627Z,7.15
2022-10-05T10:55:39.114Z,6.65
2022-10-05T10:59:18.522Z,6.78
2022-10-05T11:02:42.483Z,4.18
2022-10-05T11:06:27.238Z,9.07
2022-10-05T11:09:53.459Z,4.78
2022-10-05T11:13:24.784Z,35.70
2022-10-05T11:16:39.788Z,10.70
2022-10-05T11:20:06.325Z,6.53
2022-10-05T11:23:39.796Z,12.25
2022-10-05T11:27:12.176Z,7.75
2022-10-05T11:30:37.802Z,3.90
2022-10-05T11:34:18.407Z,6.53
2022-10-05T11:37:39.830Z,4.07
2022-10-05T11:41:03.256Z,5.38
2022-10-05T11:44:35.485Z,5.40
2022-10-05T11:47:48.147Z,6.53
2022-10-05T11:51:09.642Z,9.00
2022-10-05T11:54:35.144Z,12.05
2022-10-05T11:57:54.801Z,12.55
2022-10-05T12:01:04.088Z,4.85
2022-10-05T12:04:18.957Z,8.70
2022-10-05T12:07:30.353Z,6.45
2022-10-05T12:10:45.393Z,3.92
2022-10-05T12:13:56.011Z,6.90
2022-10-05T12:17:13.029Z,7.30
2022-10-05T12:20:21.541Z,3.40
2022-10-05T12:23:34.013Z,10.63
2022-10-05T12:26:44.729Z,3.20
2022-10-05T12:29:57.203Z,5.80
2022-10-05T12:33:09.518Z,10.75
2022-10-05T12:36:16.068Z,27.02
2022-10-05T12:39:27.091Z,20.17
2022-10-05T12:42:41.621Z,25.52
2022-10-05T12:45:59.692Z,7.57
2022-10-05T12:49:18.219Z,5.80
2022-10-05T12:52:37.003Z,3.85
2022-10-05T12:55:48.236Z,6.72
2022-10-05T12:59:01.061Z,6.63
2022-10-05T13:02:14.116Z,7.20
2022-10-05T13:05:28.231Z,4.10
2022-10-05T13:08:41.351Z,2.60
2022-10-05T13:11:49.418Z,2.40
2022-10-05T13:15:05.206Z,2.50
2022-10-05T13:18:22.426Z,3.38
2022-10-05T13:21:34.015Z,2.75
2022-10-05T13:24:43.609Z,4.63
2022-10-05T13:27:53.278Z,4.72
2022-10-05T13:31:07.966Z,2.28
2022-10-05T13:34:24.619Z,3.08
2022-10-05T13:37:34.918Z,2.75
2022-10-05T13:40:47.015Z,2.60
2022-10-05T13:44:00.079Z,3.65
2022-10-05T13:47:09.529Z,5.75
2022-10-05T13:50:20.160Z,2.72
2022-10-05T13:53:37.426Z,4.63
2022-10-05T13:56:45.901Z,5.18
2022-10-05T13:59:54.976Z,4.20
2022-10-05T14:03:01.945Z,3.08
2022-10-05T14:06:12.417Z,1.92
2022-10-05T14:09:29.512Z,3.88
2022-10-05T14:12:41.284Z,4.15
2022-10-05T14:15:57.263Z,6.28
2022-10-05T14:19:24.647Z,4.22
2022-10-05T14:22:29.539Z,3.03
2022-10-05T14:25:46.437Z,2.15
2022-10-05T14:29:01.173Z,6.50
2022-10-05T14:32:13.921Z,2.00
2022-10-05T14:35:21.969Z,1.90
2022-10-05T14:38:29.400Z,1.70
2022-10-05T14:41:37.574Z,2.15
2022-10-05T14:44:41.049Z,1.77
2022-10-05T14:47:48.965Z,1.50
2022-10-05T14:50:59.312Z,5.00
2022-10-05T14:54:04.632Z,2.00
2022-10-05T14:57:16.336Z,6.80
2022-10-05T15:00:20.155Z,9.23
2022-10-05T15:03:51.970Z,2.63
2022-10-05T15:07:14.105Z,2.20
2022-10-05T15:10:33.804Z,7.28
2022-10-05T15:13:41.451Z,3.40
2022-10-05T15:16:45.964Z,5.22
2022-10-05T15:20:01.689Z,6.20
2022-10-05T15:23:24.493Z,4.72
2022-10-05T15:26:41.532Z,4.03
2022-10-05T15:29:57.737Z,3.55
2022-10-05T15:35:32.027Z,4.45
2022-10-05T15:38:42.667Z,4.55
2022-10-05T15:42:00.176Z,6.00
2022-10-05T15:45:13.294Z,3.22
2022-10-05T15:48:20.920Z,3.97
2022-10-05T15:55:02.745Z,4.07
2022-10-05T15:58:23.663Z,4.68
2022-10-05T16:01:47.165Z,4.85
2022-10-05T16:05:04.484Z,5.45
2022-10-05T16:08:32.838Z,5.53
2022-10-05T16:11:53.918Z,4.28
2022-10-05T16:15:07.280Z,4.70
2022-10-05T16:18:34.018Z,4.43
2022-10-05T16:21:45.803Z,4.50
2022-10-05T16:25:03.806Z,3.25
2022-10-05T16:28:18.918Z,6.32
2022-10-05T16:31:31.041Z,3.58
2022-10-05T16:34:49.337Z,2.85
2022-10-05T16:38:05.743Z,6.75
2022-10-05T16:41:20.861Z,6.88
2022-10-05T16:44:34.465Z,4.15
2022-10-05T16:47:47.913Z,5.72
2022-10-05T16:51:02.503Z,6.93
2022-10-05T16:54:19.024Z,5.13
2022-10-05T16:57:28.202Z,8.10
2022-10-05T17:00:40.758Z,9.50
2022-10-05T17:04:03.294Z,10.18
2022-10-05T17:07:22.674Z,6.82
2022-10-05T17:10:41.084Z,8.52
2022-10-05T17:14:04.859Z,16.20
2022-10-05T17:17:34.273Z,17.17
2022-10-05T17:20:47.009Z,7.55
2022-10-05T17:23:55.832Z,9.60
2022-10-05T17:27:07.175Z,7.72
2022-10-05T17:30:53.966Z,6.10
2022-10-05T17:34:27.299Z,6.90
2022-10-05T17:37:36.461Z,10.38
2022-10-05T17:40:40.619Z,6.53
2022-10-05T17:44:19.964Z,8.13
2022-10-05T17:47:58.434Z,9.88
2022-10-05T17:51:19.066Z,15.40
2022-10-05T17:54:41.600Z,9.15
2022-10-05T17:57:44.868Z,10.15
2022-10-05T18:01:16.992Z,13.05
2022-10-05T18:04:34.617Z,9.82
2022-10-05T18:07:39.203Z,9.95
2022-10-05T18:11:07.091Z,11.48
2022-10-05T18:14:19.955Z,11.13
2022-10-05T18:17:39.894Z,10.20
2022-10-05T18:21:20.429Z,9.02
2022-10-05T18:24:45.234Z,9.75
2022-10-05T18:28:00.880Z,12.18
2022-10-05T18:31:18.321Z,19.77
2022-10-05T18:34:32.387Z,10.73
2022-10-05T18:37:48.644Z,12.10
2022-10-05T18:41:00.203Z,11.88
2022-10-05T18:44:21.894Z,16.25
2022-10-05T18:47:33.129Z,7.55
2022-10-05T18:50:43.642Z,8.35
2022-10-05T18:54:02.734Z,8.18
2022-10-05T18:57:38.625Z,8.65
2022-10-05T19:00:59.914Z,11.13
2022-10-05T19:04:19.311Z,10.13
2022-10-05T19:07:33.663Z,7.75
2022-10-05T19:10:45.239Z,7.38
2022-10-05T19:13:58.338Z,8.85
2022-10-05T19:17:19.254Z,6.75
2022-10-05T19:20:27.464Z,8.18
2022-10-05T19:23:47.865Z,7.47
2022-10-05T19:27:06.555Z,12.10
2022-10-05T19:30:19.613Z,8.27
2022-10-05T19:33:39.637Z,9.77
2022-10-05T19:37:02.267Z,9.40
2022-10-05T19:40:16.580Z,10.98
2022-10-05T19:43:45.645Z,11.30
2022-10-05T19:50:25.933Z,11.50
2022-10-05T19:53:31.838Z,10.90
2022-10-05T19:56:46.640Z,12.07
2022-10-05T19:59:57.493Z,11.70
2022-10-05T20:03:12.856Z,15.07
2022-10-05T20:06:16.186Z,10.68
2022-10-05T20:09:21.538Z,11.20
2022-10-05T20:12:50.534Z,8.23
2022-10-05T20:16:45.847Z,12.55
2022-10-05T20:20:06.436Z,10.70
2022-10-05T20:23:24.196Z,11.13
2022-10-05T20:27:05.478Z,10.53
2022-10-05T20:30:10.342Z,12.98
2022-10-05T20:33:14.855Z,11.43
2022-10-05T20:36:17.967Z,12.45
2022-10-05T20:39:21.470Z,11.23
2022-10-05T20:42:25.403Z,16.48
2022-10-05T20:45:28.555Z,19.98
2022-10-05T20:48:33.068Z,19.30
2022-10-05T20:51:36.802Z,15.93
2022-10-05T20:54:40.493Z,19.15
2022-10-05T20:57:46.004Z,14.75
2022-10-05T21:01:06.768Z,16.58
2022-10-05T21:04:11.374Z,13.73
2022-10-05T21:07:15.379Z,11.23
2022-10-05T21:10:18.660Z,13.75
2022-10-05T21:13:21.778Z,12.93
2022-10-05T21:16:25.013Z,11.82
2022-10-05T21:19:30.191Z,15.68
2022-10-05T21:22:35.454Z,15.80
2022-10-05T21:25:38.692Z,11.88
2022-10-05T21:28:42.564Z,13.43
2022-10-05T21:35:02.721Z,15.38
2022-10-05T21:38:05.989Z,18.20
2022-10-05T21:41:09.451Z,13.68
2022-10-05T21:44:12.643Z,18.33
2022-10-05T21:47:15.826Z,16.70
2022-10-05T21:50:22.504Z,14.80
2022-10-05T21:53:28.778Z,11.65
2022-10-05T21:56:34.822Z,13.70
2022-10-05T21:59:38.131Z,11.05
2022-10-05T22:02:41.670Z,13.75
2022-10-05T22:05:46.246Z,13.07
2022-10-05T22:08:49.554Z,11.32
2022-10-05T22:11:53.115Z,10.40
2022-10-05T22:14:56.342Z,11.70
2022-10-05T22:18:00.496Z,15.18
2022-10-05T22:21:05.976Z,15.85
2022-10-05T22:24:09.923Z,10.68
2022-10-05T22:27:13.371Z,15.95
2022-10-05T22:30:16.713Z,13.85
2022-10-05T22:33:19.892Z,12.00
2022-10-05T22:36:24.771Z,20.30
2022-10-05T22:39:28.091Z,15.82
2022-10-05T22:42:31.195Z,19.17
2022-10-05T22:45:34.559Z,15.25
2022-10-05T22:48:37.710Z,13.13
2022-10-05T22:51:42.180Z,10.63
2022-10-05T22:54:45.553Z,11.60
2022-10-05T22:57:49.189Z,14.80
2022-10-05T23:00:58.362Z,13.60
2022-10-05T23:04:02.032Z,10.88
2022-10-05T23:07:06.549Z,12.25
2022-10-05T23:10:12.270Z,8.77
2022-10-05T23:13:16.282Z,11.88
2022-10-05T23:16:21.236Z,10.13
2022-10-05T23:19:24.782Z,9.52
2022-10-05T23:22:29.269Z,10.73
2022-10-05T23:25:32.576Z,10.25
2022-10-05T23:28:35.872Z,13.02
2022-10-05T23:31:38.972Z,12.70
2022-10-05T23:34:42.192Z,9.88
2022-10-05T23:37:46.681Z,11.40
2022-10-05T23:40:49.798Z,12.05
2022-10-05T23:43:54.647Z,13.68
2022-10-05T23:46:57.755Z,10.27
2022-10-05T23:50:00.902Z,13.63
2022-10-05T23:53:05.732Z,10.88
2022-10-05T23:56:09.231Z,18.90
2022-10-05T23:59:12.439Z,13.43
